Time;durP1;ratioP1;P1;durP2;ratioP2;P2;SDS_P1;SDS_P2;PMS_P1;PMS_P2;Temp;Humidity;BMP_temperature;BMP_pressure;BME280_temperature;BME280_humidity;BME280_pressure;Samples;Min_cycle;Max_cycle;Signal;HPM_P1;HPM_P2
2023/03/04 00:02:54;;;;;;;1.40;0.75;;;8.40;98.60;;;;;;10437697;28;20037;-84
2023/03/04 00:07:55;;;;;;;1.80;0.82;;;8.40;98.70;;;;;;10456022;28;20091;-84
2023/03/04 00:12:56;;;;;;;2.63;0.80;;;8.40;98.70;;;;;;10442317;28;20043;-84
2023/03/04 00:17:56;;;;;;;5.75;1.17;;;9.90;99.00;;;;;;10440456;28;20005;-85
2023/03/04 00:22:57;;;;;;;3.33;0.73;;;8.40;98.70;;;;;;10437911;28;20025;-84
2023/03/04 00:27:57;;;;;;;4.30;0.88;;;8.40;98.70;;;;;;10440356;28;20389;-85
2023/03/04 00:32:58;;;;;;;4.45;1.17;;;8.50;98.70;;;;;;10437791;28;20688;-85
2023/03/04 00:37:59;;;;;;;3.20;1.00;;;8.40;98.70;;;;;;10432323;28;20059;-85
2023/03/04 00:42:59;;;;;;;4.43;1.35;;;8.40;98.70;;;;;;10438198;28;20486;-85
2023/03/04 00:48:00;;;;;;;2.28;1.23;;;8.50;98.70;;;;;;10434843;28;20017;-84
2023/03/04 00:53:00;;;;;;;4.75;1.00;;;8.40;98.70;;;;;;10438638;28;20021;-85
2023/03/04 00:58:01;;;;;;;1.83;0.90;;;8.40;98.70;;;;;;10447792;28;20032;-85
2023/03/04 01:03:02;;;;;;;4.00;1.00;;;7.90;98.60;;;;;;10446834;28;20377;-84
2023/03/04 01:08:04;;;;;;;2.65;0.88;;;8.40;98.70;;;;;;10463201;28;20029;-85
2023/03/04 01:13:08;;;;;;;2.60;0.82;;;8.40;98.70;;;;;;10450200;28;20024;-84
2023/03/04 01:18:09;;;;;;;2.42;0.85;;;9.00;98.80;;;;;;10448801;28;20021;-84
2023/03/04 01:23:09;;;;;;;5.07;0.95;;;9.80;99.00;;;;;;10448581;28;20491;-85
2023/03/04 01:28:10;;;;;;;2.20;0.70;;;9.60;99.00;;;;;;10462162;28;20083;-84
2023/03/04 01:33:11;;;;;;;3.30;0.90;;;8.40;98.70;;;;;;10444822;28;20035;-85
2023/03/04 01:38:12;;;;;;;2.78;0.60;;;8.40;98.70;;;;;;10455769;28;20099;-85
2023/03/04 01:43:20;;;;;;;2.22;0.77;;;8.40;98.70;;;;;;10435421;28;20397;-84
2023/03/04 01:48:25;;;;;;;5.43;0.85;;;8.40;98.70;;;;;;10437988;28;20025;-84
2023/03/04 01:53:27;;;;;;;3.42;0.90;;;9.50;99.00;;;;;;10441344;28;20029;-84
2023/03/04 01:58:30;;;;;;;0.77;0.47;;;8.60;98.80;;;;;;10442298;28;20494;-84
2023/03/04 02:03:31;;;;;;;1.08;0.50;;;8.40;98.70;;;;;;10441259;28;20127;-84
2023/03/04 02:08:33;;;;;;;2.25;0.93;;;8.40;98.70;;;;;;10440265;28;20025;-84
2023/03/04 02:13:34;;;;;;;1.02;0.50;;;8.40;98.80;;;;;;10439735;28;20032;-85
2023/03/04 02:18:35;;;;;;;1.45;0.50;;;8.40;98.80;;;;;;10434892;28;20064;-84
2023/03/04 02:23:48;;;;;;;3.22;0.90;;;8.40;98.80;;;;;;10444747;28;20590;-84
2023/03/04 02:28:51;;;;;;;3.30;0.75;;;8.40;98.80;;;;;;10442421;28;20021;-84
2023/03/04 02:33:53;;;;;;;3.72;0.70;;;8.40;98.80;;;;;;10444083;28;20040;-85
2023/03/04 02:38:59;;;;;;;2.05;0.50;;;8.40;98.80;;;;;;10442481;28;20032;-85
2023/03/04 02:44:00;;;;;;;2.42;0.60;;;8.40;98.80;;;;;;10442475;28;20029;-84
2023/03/04 02:49:00;;;;;;;3.47;0.85;;;9.20;99.00;;;;;;10442561;28;20020;-85
2023/03/04 02:54:01;;;;;;;3.08;0.70;;;9.80;99.10;;;;;;10440968;28;20024;-84
2023/03/04 02:59:02;;;;;;;1.25;0.60;;;8.40;98.80;;;;;;10444242;28;20021;-84
2023/03/04 03:04:03;;;;;;;3.15;0.60;;;8.40;98.80;;;;;;10443751;28;20488;-85
2023/03/04 03:09:04;;;;;;;2.22;0.73;;;9.50;99.10;;;;;;10442949;28;20112;-85
2023/03/04 03:14:05;;;;;;;2.53;0.70;;;8.40;98.80;;;;;;10442996;28;20025;-85
2023/03/04 03:19:09;;;;;;;1.60;0.57;;;8.40;98.90;;;;;;10442916;28;20032;-84
2023/03/04 03:24:09;;;;;;;4.10;0.73;;;8.50;98.90;;;;;;10442707;28;20252;-84
2023/03/04 03:29:10;;;;;;;1.60;0.60;;;8.30;98.80;;;;;;10440567;28;20025;-84
2023/03/04 03:34:10;;;;;;;2.78;0.70;;;8.30;98.80;;;;;;10439388;28;20455;-84
2023/03/04 03:39:11;;;;;;;2.35;0.85;;;8.30;98.80;;;;;;10440116;28;20037;-85
2023/03/04 03:44:12;;;;;;;1.20;0.50;;;8.30;98.80;;;;;;10437576;28;20041;-85
2023/03/04 03:49:12;;;;;;;2.67;0.70;;;8.30;98.80;;;;;;10455184;28;20095;-84
2023/03/04 03:54:13;;;;;;;4.70;0.70;;;8.30;98.80;;;;;;10442208;28;20090;-84
2023/03/04 03:59:13;;;;;;;2.15;0.65;;;8.50;98.90;;;;;;10440687;28;20056;-84
2023/03/04 04:04:14;;;;;;;0.95;0.47;;;8.30;98.80;;;;;;10437505;28;20025;-84
2023/03/04 04:09:15;;;;;;;2.10;0.68;;;8.30;98.80;;;;;;10438162;28;20021;-84
2023/03/04 04:14:15;;;;;;;2.47;0.63;;;8.30;98.80;;;;;;10441649;28;20033;-84
2023/03/04 04:19:18;;;;;;;1.15;0.70;;;8.30;98.80;;;;;;10441886;28;20053;-85
2023/03/04 04:24:19;;;;;;;1.70;0.70;;;8.30;98.80;;;;;;10434943;28;20091;-85
2023/03/04 04:29:19;;;;;;;1.77;0.50;;;8.30;98.80;;;;;;10441718;28;20017;-84
2023/03/04 04:34:20;;;;;;;1.48;0.52;;;8.30;98.80;;;;;;10440015;28;20033;-84
2023/03/04 04:39:21;;;;;;;2.28;0.40;;;9.60;99.20;;;;;;10441312;28;20058;-84
2023/03/04 04:44:21;;;;;;;0.88;0.43;;;8.30;98.80;;;;;;10441449;28;20102;-84
2023/03/04 04:49:22;;;;;;;1.33;0.43;;;7.80;98.70;;;;;;10435401;28;20031;-85
2023/03/04 04:54:23;;;;;;;1.08;0.50;;;8.30;98.80;;;;;;10435672;28;20511;-84
2023/03/04 04:59:24;;;;;;;1.15;0.45;;;8.30;98.80;;;;;;10434223;28;20392;-83
2023/03/04 05:04:25;;;;;;;1.20;0.38;;;8.30;98.80;;;;;;10438963;28;20036;-84
2023/03/04 05:09:25;;;;;;;0.93;0.38;;;8.30;98.80;;;;;;10440120;28;20079;-84
2023/03/04 05:14:27;;;;;;;2.55;0.50;;;8.30;98.80;;;;;;10439568;28;20078;-84
2023/03/04 05:19:28;;;;;;;1.70;0.50;;;8.30;98.80;;;;;;10437662;28;20036;-84
2023/03/04 05:24:29;;;;;;;0.55;0.45;;;8.90;99.00;;;;;;10434904;28;20033;-83
2023/03/04 05:29:29;;;;;;;1.08;0.45;;;8.30;98.80;;;;;;10438415;28;20074;-84
2023/03/04 05:34:30;;;;;;;0.68;0.43;;;9.20;99.10;;;;;;10435730;28;20390;-84
2023/03/04 05:39:30;;;;;;;1.23;0.50;;;8.30;98.80;;;;;;10434406;28;20047;-84
2023/03/04 05:44:31;;;;;;;0.88;0.43;;;8.30;98.90;;;;;;10443608;28;20036;-84
2023/03/04 05:49:32;;;;;;;2.00;0.45;;;9.70;99.20;;;;;;10461652;28;20021;-84
2023/03/04 05:54:32;;;;;;;0.70;0.40;;;8.30;98.90;;;;;;10445912;28;20029;-83
2023/03/04 05:59:33;;;;;;;2.28;0.60;;;8.30;98.90;;;;;;10448543;28;20060;-83
2023/03/04 06:04:33;;;;;;;1.42;0.85;;;8.90;99.00;;;;;;10447854;28;20025;-84
2023/03/04 06:09:34;;;;;;;2.45;0.60;;;8.20;98.90;;;;;;10444162;28;20409;-84
2023/03/04 06:14:35;;;;;;;2.75;0.63;;;9.70;99.20;;;;;;10444012;28;20024;-84
2023/03/04 06:19:36;;;;;;;1.27;0.35;;;8.30;98.90;;;;;;10442450;28;20044;-85
2023/03/04 06:24:37;;;;;;;2.67;0.40;;;8.30;99.20;;;;;;10442250;28;20163;-83
2023/03/04 06:29:38;;;;;;;0.40;0.30;;;8.20;98.90;;;;;;10445857;28;20108;-84
2023/03/04 06:34:39;;;;;;;0.68;0.50;;;8.20;98.90;;;;;;10443516;28;20381;-84
2023/03/04 06:39:39;;;;;;;1.35;0.60;;;8.20;98.90;;;;;;10444127;28;20028;-84
2023/03/04 06:44:40;;;;;;;2.30;0.38;;;8.20;98.90;;;;;;10443141;28;20044;-84
2023/03/04 06:49:41;;;;;;;1.30;0.40;;;8.20;98.90;;;;;;10446497;28;20025;-83
2023/03/04 06:54:42;;;;;;;1.08;0.40;;;8.20;98.90;;;;;;10443235;28;20499;-83
2023/03/04 06:59:42;;;;;;;0.70;0.52;;;8.20;98.90;;;;;;10442263;28;20032;-83
2023/03/04 07:04:43;;;;;;;1.23;0.47;;;8.20;98.90;;;;;;10431944;28;20378;-84
2023/03/04 07:09:43;;;;;;;0.90;0.60;;;8.90;99.00;;;;;;10441551;28;20314;-84
2023/03/04 07:14:44;;;;;;;1.20;0.50;;;8.30;98.90;;;;;;10442011;28;20055;-84
2023/03/04 07:19:48;;;;;;;0.60;0.40;;;8.30;98.90;;;;;;10437231;28;20029;-84
2023/03/04 07:24:48;;;;;;;1.38;0.93;;;8.30;98.90;;;;;;10444089;28;20060;-84
2023/03/04 07:29:49;;;;;;;1.15;0.40;;;8.30;98.90;;;;;;10443362;28;20013;-84
2023/03/04 07:34:50;;;;;;;1.08;0.40;;;8.30;98.90;;;;;;10458256;28;20037;-84
2023/03/04 07:39:51;;;;;;;2.80;0.55;;;9.10;99.10;;;;;;10438176;28;20021;-84
2023/03/04 07:44:52;;;;;;;1.58;0.50;;;9.00;99.00;;;;;;10437585;28;20112;-84
2023/03/04 07:49:58;;;;;;;0.88;0.38;;;8.30;99.10;;;;;;10445845;28;20496;-84
2023/03/04 07:54:59;;;;;;;2.47;0.50;;;9.30;99.10;;;;;;10440929;28;20051;-83
2023/03/04 07:59:59;;;;;;;0.73;0.38;;;8.90;99.00;;;;;;10441449;28;20245;-83
2023/03/04 08:05:00;;;;;;;3.45;0.45;;;8.40;98.80;;;;;;10439466;28;20025;-84
2023/03/04 08:10:01;;;;;;;0.65;0.40;;;8.30;98.80;;;;;;10441847;28;20514;-84
2023/03/04 08:15:02;;;;;;;0.93;0.40;;;8.40;98.80;;;;;;10455104;28;20041;-84
2023/03/04 08:20:03;;;;;;;1.35;0.40;;;8.40;98.80;;;;;;10452641;28;20031;-83
2023/03/04 08:25:04;;;;;;;1.58;0.40;;;8.40;98.80;;;;;;10432951;28;20298;-83
2023/03/04 08:30:05;;;;;;;1.17;0.40;;;8.40;98.80;;;;;;10449621;28;20025;-84
2023/03/04 08:35:06;;;;;;;0.98;0.38;;;8.40;98.80;;;;;;10433168;28;20137;-83
2023/03/04 08:40:07;;;;;;;1.75;0.50;;;8.40;98.80;;;;;;10435939;28;20060;-83
2023/03/04 08:45:09;;;;;;;0.90;0.50;;;8.40;98.80;;;;;;10430185;28;20725;-84
2023/03/04 08:50:10;;;;;;;2.65;0.50;;;8.40;98.80;;;;;;10432875;28;20438;-82
2023/03/04 08:55:12;;;;;;;0.55;0.30;;;8.40;98.80;;;;;;10438285;28;20516;-83
2023/03/04 09:00:13;;;;;;;0.40;0.20;;;8.40;98.80;;;;;;10441058;28;20440;-83
2023/03/04 09:05:13;;;;;;;1.55;0.40;;;8.40;98.80;;;;;;10434700;28;20488;-82
2023/03/04 09:10:14;;;;;;;2.72;0.40;;;8.40;98.80;;;;;;10439637;28;20029;-83
2023/03/04 09:15:15;;;;;;;0.88;0.40;;;8.50;98.80;;;;;;10454200;28;20043;-83
2023/03/04 09:20:16;;;;;;;2.30;0.43;;;8.50;98.90;;;;;;10448950;28;20021;-83
2023/03/04 09:25:16;;;;;;;0.77;0.47;;;8.90;98.90;;;;;;10446235;28;20021;-83
2023/03/04 09:30:17;;;;;;;1.33;0.52;;;9.70;99.10;;;;;;10442045;28;20509;-84
2023/03/04 09:35:18;;;;;;;1.23;0.50;;;8.60;98.80;;;;;;10441957;28;20182;-83
2023/03/04 09:40:22;;;;;;;1.50;0.40;;;8.50;99.10;;;;;;10438308;28;20029;-84
2023/03/04 09:45:31;;;;;;;1.98;0.50;;;8.60;98.90;;;;;;10443718;28;20307;-84
2023/03/04 09:50:36;;;;;;;1.58;0.40;;;8.60;99.00;;;;;;10440119;28;20029;-84
2023/03/04 09:55:39;;;;;;;1.40;0.50;;;9.60;99.20;;;;;;10437496;28;20036;-84
2023/03/04 10:00:41;;;;;;;0.93;0.30;;;8.60;98.90;;;;;;10437385;28;20627;-84
2023/03/04 10:05:54;;;;;;;2.30;0.40;;;9.50;99.10;;;;;;10438710;28;20029;-84
2023/03/04 10:10:58;;;;;;;1.65;0.32;;;8.70;99.00;;;;;;10442560;28;20055;-84
2023/03/04 10:16:02;;;;;;;1.98;0.50;;;8.70;99.00;;;;;;10439468;28;20029;-84
2023/03/04 10:21:13;;;;;;;1.38;0.38;;;9.30;99.10;;;;;;10452750;28;20280;-83
2023/03/04 10:26:16;;;;;;;1.38;0.47;;;8.80;98.90;;;;;;10451309;28;20090;-84
2023/03/04 10:31:36;;;;;;;0.90;0.32;;;8.80;98.90;;;;;;10441556;28;20041;-84
2023/03/04 10:37:05;;;;;;;1.77;0.38;;;8.80;99.00;;;;;;10438509;28;20033;-84
2023/03/04 10:42:15;;;;;;;1.52;0.50;;;8.90;98.90;;;;;;10444290;28;20049;-83
2023/03/04 10:47:16;;;;;;;2.25;0.30;;;8.80;99.00;;;;;;10439573;28;20025;-83
2023/03/04 10:52:22;;;;;;;0.68;0.45;;;8.80;99.00;;;;;;10444626;28;20488;-83
2023/03/04 10:57:47;;;;;;;4.38;1.33;;;8.80;99.10;;;;;;10440903;28;20523;-83
2023/03/04 11:02:48;;;;;;;11.23;1.33;;;10.00;98.50;;;;;;10461061;28;20476;-86
2023/03/04 11:07:52;;;;;;;4.95;1.25;;;8.30;98.70;;;;;;10426040;28;20061;-85
2023/03/04 11:13:11;;;;;;;12.65;1.48;;;8.30;98.80;;;;;;10434122;28;20028;-84
2023/03/04 11:18:13;;;;;;;9.25;1.52;;;8.40;99.00;;;;;;10444647;28;20032;-84
2023/03/04 11:23:33;;;;;;;3.78;1.13;;;8.50;98.90;;;;;;10437511;28;20562;-85
2023/03/04 11:28:52;;;;;;;9.63;1.90;;;8.70;98.90;;;;;;10453336;28;20025;-82
2023/03/04 11:34:13;;;;;;;4.07;1.10;;;8.80;98.90;;;;;;10441438;28;20037;-84
2023/03/04 11:39:30;;;;;;;3.47;0.77;;;8.80;98.80;;;;;;10440693;28;20526;-82
2023/03/04 11:44:30;;;;;;;6.30;0.90;;;8.90;98.80;;;;;;10457482;28;20442;-85
2023/03/04 11:49:56;;;;;;;4.90;0.70;;;8.90;98.80;;;;;;10439307;28;20036;-86
2023/03/04 11:55:03;;;;;;;4.72;0.95;;;9.00;98.90;;;;;;10438940;28;20035;-85
2023/03/04 12:00:34;;;;;;;6.22;1.15;;;10.00;99.10;;;;;;10441069;28;20086;-84
2023/03/04 12:06:13;;;;;;;3.42;0.85;;;9.00;98.90;;;;;;10436726;28;20087;-86
2023/03/04 12:11:39;;;;;;;5.13;0.95;;;9.00;99.00;;;;;;10449910;28;20183;-86
2023/03/04 12:16:39;;;;;;;2.63;0.63;;;9.10;99.00;;;;;;10447600;28;20017;-86
2023/03/04 12:21:49;;;;;;;7.80;0.82;;;10.50;99.30;;;;;;10434232;28;20029;-85
2023/03/04 12:27:00;;;;;;;5.95;0.82;;;9.10;99.00;;;;;;10448075;28;20485;-86
2023/03/04 12:32:34;;;;;;;5.68;0.70;;;10.30;99.20;;;;;;10452099;28;20037;-84
2023/03/04 12:37:50;;;;;;;2.97;0.70;;;9.30;99.00;;;;;;10418800;28;20125;-85
2023/03/04 12:43:29;;;;;;;3.35;0.75;;;9.20;98.10;;;;;;10434554;28;20025;-87
2023/03/04 12:48:29;;;;;;;;;;;9.00;97.00;;;;;;10431867;28;20037;-86
2023/03/04 12:53:49;;;;;;;6.97;1.27;;;8.70;95.60;;;;;;10433926;28;19908;-85
2023/03/04 12:58:50;;;;;;;9.35;1.58;;;8.50;96.00;;;;;;10436601;28;20029;-84
2023/03/04 13:03:59;;;;;;;11.05;2.17;;;8.40;96.50;;;;;;10448267;28;21025;-84
2023/03/04 13:09:14;;;;;;;9.60;1.70;;;8.30;96.90;;;;;;10431178;28;20108;-85
2023/03/04 13:14:17;;;;;;;5.35;1.35;;;8.30;96.60;;;;;;10435459;28;20037;-86
2023/03/04 13:19:46;;;;;;;6.25;1.05;;;8.80;97.40;;;;;;10428905;28;20032;-85
2023/03/04 13:24:49;;;;;;;8.07;0.90;;;8.20;97.60;;;;;;10436073;28;20029;-85
2023/03/04 13:29:50;;;;;;;6.22;1.45;;;8.40;97.70;;;;;;10457003;28;20720;-86
2023/03/04 13:34:55;;;;;;;5.18;1.00;;;8.60;97.70;;;;;;10438436;28;20040;-86
2023/03/04 13:40:22;;;;;;;8.13;1.60;;;8.80;97.70;;;;;;10429631;28;20382;-85
2023/03/04 13:45:37;;;;;;;5.97;0.80;;;8.90;97.80;;;;;;10428700;28;20454;-86
2023/03/04 13:50:44;;;;;;;4.93;0.88;;;10.30;98.20;;;;;;10432073;28;20034;-86
2023/03/04 13:56:03;;;;;;;7.78;0.85;;;10.00;98.10;;;;;;10445291;28;20035;-86
2023/03/04 14:01:06;;;;;;;4.50;0.93;;;10.00;98.10;;;;;;10438628;28;20714;-85
2023/03/04 14:06:26;;;;;;;6.32;0.85;;;10.40;98.10;;;;;;10440498;28;20052;-86
2023/03/04 14:11:37;;;;;;;4.10;0.80;;;9.40;97.80;;;;;;10442390;28;20120;-86
2023/03/04 14:16:46;;;;;;;3.67;0.82;;;9.40;97.80;;;;;;10441739;28;20045;-86
2023/03/04 14:21:47;;;;;;;2.65;0.70;;;9.40;97.80;;;;;;10441746;28;20519;-86
2023/03/04 14:26:49;;;;;;;2.72;0.82;;;9.40;97.90;;;;;;10438933;28;20036;-86
2023/03/04 14:31:50;;;;;;;2.75;1.00;;;10.20;98.10;;;;;;10456856;28;20492;-86
2023/03/04 14:36:52;;;;;;;7.93;1.00;;;10.00;98.10;;;;;;10441286;28;20448;-86
2023/03/04 14:41:57;;;;;;;6.47;0.90;;;9.50;98.10;;;;;;10442810;28;20276;-84
2023/03/04 14:47:06;;;;;;;4.00;0.80;;;9.50;97.40;;;;;;10435286;28;20037;-83
2023/03/04 14:52:31;;;;;;;14.68;1.27;;;9.40;97.20;;;;;;10439517;28;20041;-85
2023/03/04 14:57:33;;;;;;;9.57;1.40;;;8.90;96.10;;;;;;10454537;28;20031;-86
2023/03/04 15:02:40;;;;;;;4.85;1.40;;;8.90;97.30;;;;;;10437555;28;20045;-85
2023/03/04 15:07:41;;;;;;;6.15;1.00;;;9.00;97.50;;;;;;10453238;28;20046;-84
2023/03/04 15:12:59;;;;;;;7.18;1.30;;;10.50;98.00;;;;;;10437725;28;20025;-84
2023/03/04 15:18:02;;;;;;;3.85;0.70;;;9.10;97.70;;;;;;10440330;28;20033;-85
2023/03/04 15:23:06;;;;;;;8.13;0.90;;;9.20;97.80;;;;;;10438565;28;20500;-85
2023/03/04 15:28:16;;;;;;;5.57;0.90;;;9.20;97.80;;;;;;10441062;28;20031;-84
2023/03/04 15:33:33;;;;;;;3.05;0.70;;;9.30;98.10;;;;;;10429338;28;20074;-85
2023/03/04 15:38:40;;;;;;;5.60;1.15;;;9.30;98.00;;;;;;10434667;28;20044;-85
2023/03/04 15:43:42;;;;;;;2.67;1.13;;;9.30;98.00;;;;;;10433561;28;20055;-85
2023/03/04 15:48:48;;;;;;;3.35;1.30;;;10.60;98.40;;;;;;10432473;28;20033;-85
2023/03/04 15:53:54;;;;;;;2.40;0.60;;;10.50;98.40;;;;;;10433931;28;20508;-85
2023/03/04 15:59:10;;;;;;;6.75;1.25;;;9.50;98.30;;;;;;10435056;28;20037;-85
2023/03/04 16:04:22;;;;;;;4.78;0.70;;;10.20;98.50;;;;;;10440570;28;20025;-88
2023/03/04 16:09:23;;;;;;;3.97;0.73;;;9.30;98.40;;;;;;10438681;28;20045;-85
2023/03/04 16:14:25;;;;;;;5.70;0.88;;;9.20;98.40;;;;;;10439564;28;20031;-84
2023/03/04 16:19:26;;;;;;;1.85;0.65;;;9.20;98.50;;;;;;10440267;28;20025;-83
2023/03/04 16:24:31;;;;;;;5.07;1.35;;;9.20;98.50;;;;;;10435415;28;20459;-83
2023/03/04 16:29:32;;;;;;;2.60;0.70;;;9.20;98.80;;;;;;10433137;28;20053;-82
2023/03/04 16:34:32;;;;;;;5.13;0.93;;;9.20;98.60;;;;;;10437229;28;20061;-82
2023/03/04 16:39:33;;;;;;;3.60;0.70;;;9.20;98.60;;;;;;10422140;28;20030;-83
2023/03/04 16:44:34;;;;;;;6.18;0.98;;;9.80;99.00;;;;;;10437024;28;20020;-84
2023/03/04 16:49:34;;;;;;;3.55;1.05;;;9.20;98.70;;;;;;10434888;28;20025;-84
2023/03/04 16:54:35;;;;;;;5.93;1.10;;;9.20;98.70;;;;;;10436349;28;20040;-83
2023/03/04 16:59:36;;;;;;;2.03;0.90;;;9.80;98.90;;;;;;10425938;28;20030;-84
2023/03/04 17:04:36;;;;;;;2.38;0.80;;;10.00;99.00;;;;;;10422981;28;20040;-84
2023/03/04 17:09:38;;;;;;;5.50;0.80;;;9.70;99.00;;;;;;10433534;28;20063;-84
2023/03/04 17:14:39;;;;;;;3.47;1.02;;;9.10;98.90;;;;;;10436732;28;20033;-85
2023/03/04 17:19:40;;;;;;;5.50;1.27;;;9.70;99.00;;;;;;10445342;28;20033;-81
2023/03/04 17:24:41;;;;;;;5.93;1.27;;;8.90;98.30;;;;;;10427652;28;20025;-84
2023/03/04 17:29:42;;;;;;;11.80;2.28;;;8.60;98.60;;;;;;10436354;28;20032;-85
2023/03/04 17:34:43;;;;;;;7.35;1.23;;;9.20;98.90;;;;;;10431782;28;20031;-84
2023/03/04 17:39:43;;;;;;;3.97;1.23;;;8.70;98.70;;;;;;10455794;28;20166;-85
2023/03/04 17:44:44;;;;;;;4.53;1.23;;;8.70;98.70;;;;;;10444211;28;20036;-85
2023/03/04 17:49:45;;;;;;;7.00;1.75;;;8.80;98.70;;;;;;10438892;28;20024;-85
2023/03/04 17:54:46;;;;;;;6.40;1.40;;;8.80;98.70;;;;;;10434010;28;20032;-84
2023/03/04 17:59:47;;;;;;;6.40;1.15;;;8.80;98.60;;;;;;10435777;28;20034;-84
2023/03/04 18:04:49;;;;;;;2.25;1.10;;;8.80;98.60;;;;;;10438434;28;20443;-85
2023/03/04 18:09:49;;;;;;;5.72;1.45;;;9.30;98.70;;;;;;10433916;28;20029;-81
2023/03/04 18:14:50;;;;;;;3.20;1.15;;;8.70;98.10;;;;;;10442185;28;20039;-84
2023/03/04 18:19:51;;;;;;;4.40;1.08;;;9.20;98.50;;;;;;10436181;28;20504;-85
2023/03/04 18:24:51;;;;;;;5.22;1.08;;;8.60;98.40;;;;;;10445740;28;20078;-82
2023/03/04 18:29:52;;;;;;;4.38;1.40;;;8.70;98.40;;;;;;10449850;28;20036;-82
2023/03/04 18:34:52;;;;;;;7.00;1.83;;;8.70;98.40;;;;;;10438975;28;20512;-83
2023/03/04 18:39:53;;;;;;;6.20;1.73;;;8.70;98.40;;;;;;10429974;28;20029;-84
2023/03/04 18:44:54;;;;;;;4.93;1.35;;;10.30;98.80;;;;;;10425537;28;20025;-83
2023/03/04 18:49:54;;;;;;;4.30;1.48;;;8.80;98.40;;;;;;10438952;28;20060;-82
2023/03/04 18:54:55;;;;;;;7.65;1.25;;;8.70;98.40;;;;;;10423008;28;20064;-83
2023/03/04 18:59:58;;;;;;;2.20;0.88;;;10.10;98.80;;;;;;10435264;28;20419;-84
2023/03/04 19:05:12;;;;;;;7.95;1.20;;;8.70;98.40;;;;;;10438258;28;20033;-83
2023/03/04 19:10:13;;;;;;;4.32;1.48;;;8.80;98.50;;;;;;10433315;28;20116;-83
2023/03/04 19:15:13;;;;;;;5.88;1.23;;;8.70;98.40;;;;;;10450574;28;20119;-83
2023/03/04 19:20:15;;;;;;;8.45;1.52;;;8.70;98.50;;;;;;10437830;28;20025;-83
2023/03/04 19:25:15;;;;;;;3.78;1.00;;;8.90;98.50;;;;;;10438176;28;20024;-83
2023/03/04 19:30:17;;;;;;;3.33;1.10;;;8.70;98.50;;;;;;10440711;28;20033;-84
2023/03/04 19:35:17;;;;;;;5.10;1.52;;;8.70;98.50;;;;;;10432649;28;20034;-83
2023/03/04 19:40:19;;;;;;;6.05;1.52;;;8.90;98.60;;;;;;10457985;28;20040;-84
2023/03/04 19:45:20;;;;;;;3.67;1.00;;;9.30;98.70;;;;;;10435030;28;20484;-84
2023/03/04 19:50:21;;;;;;;7.38;1.10;;;8.70;98.50;;;;;;10435241;28;20029;-83
2023/03/04 19:55:21;;;;;;;3.08;0.80;;;9.50;98.80;;;;;;10437959;28;20029;-85
2023/03/04 20:00:22;;;;;;;5.82;1.60;;;8.70;98.60;;;;;;10437718;28;20633;-83
2023/03/04 20:05:23;;;;;;;3.25;1.00;;;8.70;98.60;;;;;;10442094;28;20594;-83
2023/03/04 20:10:23;;;;;;;2.50;1.20;;;8.60;98.60;;;;;;10420447;28;20471;-83
2023/03/04 20:15:24;;;;;;;3.92;0.90;;;9.30;98.70;;;;;;10437158;28;20085;-83
2023/03/04 20:20:28;;;;;;;4.30;1.48;;;8.70;98.60;;;;;;10441043;28;20446;-83
2023/03/04 20:25:30;;;;;;;3.25;1.13;;;8.60;98.60;;;;;;10439354;28;20025;-82
2023/03/04 20:30:31;;;;;;;4.05;1.00;;;8.60;98.60;;;;;;10439944;28;20027;-83
2023/03/04 20:35:32;;;;;;;2.78;0.90;;;8.60;98.60;;;;;;10435615;28;20025;-83
2023/03/04 20:40:34;;;;;;;3.03;0.93;;;8.60;98.60;;;;;;10435828;28;20495;-83
2023/03/04 20:45:36;;;;;;;2.13;0.88;;;8.60;98.60;;;;;;10428070;28;20028;-82
2023/03/04 20:50:36;;;;;;;2.30;0.70;;;9.60;98.90;;;;;;10446623;28;20287;-83
2023/03/04 20:55:37;;;;;;;2.78;0.80;;;8.50;98.60;;;;;;10438980;28;20101;-83
2023/03/04 21:00:38;;;;;;;1.92;0.75;;;8.60;98.60;;;;;;10438869;28;20167;-82
2023/03/04 21:05:38;;;;;;;2.10;0.98;;;9.00;98.80;;;;;;10438733;28;20055;-82
2023/03/04 21:10:39;;;;;;;2.50;0.80;;;8.60;98.70;;;;;;10443295;28;20029;-82
2023/03/04 21:15:46;;;;;;;2.15;0.93;;;9.30;98.80;;;;;;10431674;28;20041;-81
2023/03/04 21:20:47;;;;;;;3.05;0.88;;;8.50;98.60;;;;;;10449928;28;20075;-81
2023/03/04 21:25:48;;;;;;;3.42;1.15;;;8.50;98.60;;;;;;10451085;28;20151;-82
2023/03/04 21:30:49;;;;;;;1.67;0.70;;;8.50;98.70;;;;;;10446773;28;20586;-82
2023/03/04 21:35:50;;;;;;;3.15;0.80;;;8.50;98.70;;;;;;10448813;28;20491;-82
2023/03/04 21:40:51;;;;;;;3.88;1.00;;;8.50;98.70;;;;;;10447957;28;20025;-82
2023/03/04 21:45:57;;;;;;;2.05;0.93;;;9.30;98.90;;;;;;10448072;28;20025;-82
2023/03/04 21:51:03;;;;;;;1.95;1.08;;;8.50;98.70;;;;;;10443698;28;20335;-82
2023/03/04 21:56:04;;;;;;;2.30;0.80;;;8.50;98.70;;;;;;10448988;28;20516;-81
2023/03/04 22:01:09;;;;;;;1.02;0.70;;;8.50;98.70;;;;;;10444591;28;20060;-82
2023/03/04 22:06:12;;;;;;;2.83;0.90;;;8.40;98.70;;;;;;10446809;28;20115;-82
2023/03/04 22:11:12;;;;;;;2.95;0.88;;;8.40;98.70;;;;;;10446624;28;20430;-82
2023/03/04 22:16:14;;;;;;;3.45;0.82;;;8.40;98.70;;;;;;10448927;28;20068;-82
2023/03/04 22:21:17;;;;;;;4.18;1.00;;;8.40;98.70;;;;;;10443024;28;20424;-82
2023/03/04 22:26:28;;;;;;;2.40;0.95;;;8.40;98.70;;;;;;10443260;28;20492;-82
2023/03/04 22:31:35;;;;;;;3.08;0.85;;;8.40;98.70;;;;;;10442425;28;20029;-82
2023/03/04 22:36:38;;;;;;;2.47;0.90;;;8.30;98.70;;;;;;10445002;28;20452;-84
2023/03/04 22:41:39;;;;;;;2.40;0.90;;;8.40;98.70;;;;;;10446562;28;20036;-83
2023/03/04 22:46:40;;;;;;;3.08;0.98;;;9.30;98.90;;;;;;10446487;28;20040;-82
2023/03/04 22:51:43;;;;;;;2.42;0.80;;;8.80;98.80;;;;;;10446029;28;20370;-81
2023/03/04 22:56:44;;;;;;;1.85;0.82;;;8.30;98.70;;;;;;10443323;28;20025;-81
2023/03/04 23:01:45;;;;;;;2.13;1.45;;;8.30;98.70;;;;;;10448927;28;20029;-81
2023/03/04 23:06:45;;;;;;;1.88;0.90;;;9.60;99.00;;;;;;10446186;28;20492;-81
2023/03/04 23:11:46;;;;;;;3.40;1.08;;;8.30;98.70;;;;;;10450103;28;20025;-81
2023/03/04 23:16:47;;;;;;;2.17;0.90;;;8.90;98.90;;;;;;10450141;28;20099;-83
2023/03/04 23:21:48;;;;;;;2.00;0.90;;;8.30;98.70;;;;;;10442612;28;20039;-83
2023/03/04 23:26:51;;;;;;;1.65;0.50;;;8.30;98.70;;;;;;10442822;28;20029;-83
2023/03/04 23:31:51;;;;;;;3.88;1.15;;;8.30;98.70;;;;;;10446436;28;20025;-83
2023/03/04 23:36:52;;;;;;;2.85;0.95;;;8.30;98.70;;;;;;10437228;28;20022;-83
2023/03/04 23:41:53;;;;;;;2.80;0.60;;;8.20;98.70;;;;;;10442925;28;20490;-83
2023/03/04 23:46:53;;;;;;;2.97;0.95;;;8.30;98.80;;;;;;10443903;28;20032;-83
2023/03/04 23:51:54;;;;;;;2.25;0.77;;;8.20;98.80;;;;;;10443308;28;20025;-83
2023/03/04 23:56:55;;;;;;;4.65;0.70;;;8.20;98.70;;;;;;10440741;28;20502;-83
